Time;durP1;ratioP1;P1;durP2;ratioP2;P2;SDS_P1;SDS_P2;PMS_P1;PMS_P2;Temp;Humidity;BMP_temperature;BMP_pressure;BME280_temperature;BME280_humidity;BME280_pressure;Samples;Min_cycle;Max_cycle;Signal;HPM_P1;HPM_P2
2021/10/09 00:01:10;;;;;;;29.38;21.42;;;5.50;99.90;;;;;;5032829;28;20370;-86
2021/10/09 00:03:52;;;;;;;27.55;22.17;;;5.40;99.90;;;;;;5034381;28;20893;-84
2021/10/09 00:06:37;;;;;;;33.28;22.63;;;5.40;99.90;;;;;;5052485;28;20769;-85
2021/10/09 00:09:06;;;;;;;28.87;22.47;;;5.40;99.90;;;;;;5052236;28;20397;-85
2021/10/09 00:12:27;;;;;;;31.75;22.08;;;5.40;99.90;;;;;;5034990;28;20449;-85
2021/10/09 00:14:58;;;;;;;28.85;22.58;;;5.30;99.90;;;;;;5052740;28;20364;-84
2021/10/09 00:17:25;;;;;;;30.05;22.67;;;5.30;99.90;;;;;;5028824;28;20464;-85
2021/10/09 00:20:02;;;;;;;28.80;21.58;;;5.30;99.90;;;;;;5052023;28;20879;-84
2021/10/09 00:22:28;;;;;;;29.85;22.35;;;5.40;99.90;;;;;;5052744;28;20372;-83
2021/10/09 00:24:59;;;;;;;30.83;22.95;;;5.50;99.90;;;;;;5034053;28;20797;-85
2021/10/09 00:27:31;;;;;;;27.53;22.47;;;5.40;99.90;;;;;;5051199;28;20383;-85
2021/10/09 00:30:34;;;;;;;27.33;22.23;;;5.40;99.90;;;;;;5052401;28;20376;-84
2021/10/09 00:33:00;;;;;;;27.40;22.08;;;5.30;99.90;;;;;;5034142;28;20380;-85
2021/10/09 00:35:34;;;;;;;29.03;21.60;;;5.30;99.90;;;;;;5033557;28;20462;-84
2021/10/09 00:38:03;;;;;;;28.55;22.25;;;5.30;99.90;;;;;;5052484;28;20407;-84
2021/10/09 00:40:34;;;;;;;32.25;21.67;;;5.30;99.90;;;;;;5051601;28;20383;-84
2021/10/09 00:43:10;;;;;;;29.35;22.42;;;5.40;99.90;;;;;;5033968;28;20442;-85
2021/10/09 00:46:36;;;;;;;31.52;22.83;;;5.30;99.90;;;;;;5034708;28;20454;-85
2021/10/09 00:49:14;;;;;;;30.48;21.38;;;5.30;99.90;;;;;;5033402;28;20379;-86
2021/10/09 00:51:40;;;;;;;28.45;22.17;;;5.20;99.90;;;;;;5033208;28;20383;-86
2021/10/09 00:54:06;;;;;;;28.08;21.40;;;5.20;99.90;;;;;;5051679;28;20418;-85
2021/10/09 00:56:48;;;;;;;30.45;22.52;;;5.20;99.90;;;;;;5051710;28;20384;-85
2021/10/09 00:59:15;;;;;;;27.53;21.10;;;5.30;99.90;;;;;;5051975;28;20388;-85
2021/10/09 01:02:22;;;;;;;33.83;22.55;;;5.30;99.90;;;;;;5034101;28;20383;-85
2021/10/09 01:05:27;;;;;;;28.98;21.30;;;5.30;99.90;;;;;;5044873;28;20415;-85
2021/10/09 01:08:20;;;;;;;29.92;21.98;;;5.30;99.90;;;;;;4974069;28;20436;-84
2021/10/09 01:10:45;;;;;;;30.50;21.90;;;5.30;99.90;;;;;;4973629;28;20439;-84
2021/10/09 01:13:11;;;;;;;28.10;21.43;;;5.20;99.90;;;;;;4974209;28;20381;-85
2021/10/09 01:15:44;;;;;;;29.77;22.73;;;5.20;99.90;;;;;;5050671;28;20380;-85
2021/10/09 01:18:20;;;;;;;28.58;21.92;;;5.20;99.90;;;;;;5033520;28;20434;-85
2021/10/09 01:21:17;;;;;;;28.38;21.70;;;5.20;99.90;;;;;;5033523;28;20399;-86
2021/10/09 01:23:55;;;;;;;28.55;23.02;;;5.20;99.90;;;;;;5032275;28;20380;-85
2021/10/09 01:26:29;;;;;;;28.30;22.67;;;5.10;99.90;;;;;;5033368;28;20387;-85
2021/10/09 01:29:01;;;;;;;31.63;22.35;;;5.10;99.90;;;;;;5049699;28;20375;-85
2021/10/09 01:31:29;;;;;;;32.58;23.13;;;5.10;99.90;;;;;;5050272;28;20406;-84
2021/10/09 01:34:04;;;;;;;33.65;23.55;;;5.00;99.90;;;;;;5050490;28;20372;-85
2021/10/09 01:36:32;;;;;;;32.00;23.30;;;5.00;99.90;;;;;;5051445;28;20379;-85
2021/10/09 01:39:40;;;;;;;30.67;23.40;;;4.90;99.90;;;;;;5050256;28;20558;-85
2021/10/09 01:42:17;;;;;;;30.63;23.02;;;4.90;99.90;;;;;;4972883;28;20408;-86
2021/10/09 01:44:52;;;;;;;31.98;23.10;;;4.90;99.90;;;;;;4989109;28;20940;-86
2021/10/09 01:47:17;;;;;;;31.15;23.23;;;4.80;99.90;;;;;;4989403;28;20427;-85
2021/10/09 01:50:03;;;;;;;30.57;23.60;;;4.90;99.90;;;;;;4989205;28;20432;-84
2021/10/09 01:52:34;;;;;;;29.95;23.23;;;4.90;99.90;;;;;;5021170;28;20394;-85
2021/10/09 01:55:09;;;;;;;29.90;22.52;;;4.90;99.90;;;;;;5032619;28;20400;-85
2021/10/09 01:58:13;;;;;;;32.20;23.13;;;4.80;99.90;;;;;;5049637;28;20412;-85
2021/10/09 02:00:45;;;;;;;29.10;22.73;;;4.80;99.90;;;;;;5023595;28;20395;-85
2021/10/09 02:03:42;;;;;;;32.50;24.48;;;4.80;99.90;;;;;;5049979;28;20854;-84
2021/10/09 02:06:11;;;;;;;34.40;23.85;;;4.80;99.90;;;;;;5032340;28;20379;-84
2021/10/09 02:08:37;;;;;;;31.38;24.50;;;4.70;99.90;;;;;;5031986;28;20397;-85
2021/10/09 02:11:05;;;;;;;35.30;23.43;;;4.80;99.90;;;;;;5032095;28;20368;-83
2021/10/09 02:13:40;;;;;;;31.38;24.02;;;4.80;99.90;;;;;;5031974;28;20471;-85
2021/10/09 02:16:19;;;;;;;34.50;23.90;;;4.80;99.90;;;;;;5032427;28;20486;-85
2021/10/09 02:24:23;;;;;;;27.63;23.53;;;4.70;99.90;;;;;;5050171;28;20386;-86
2021/10/09 02:26:49;;;;;;;33.40;23.75;;;4.80;99.90;;;;;;5050941;28;20375;-85
2021/10/09 02:29:15;;;;;;;30.67;23.67;;;4.80;99.90;;;;;;5032212;28;20388;-85
2021/10/09 02:31:41;;;;;;;32.92;24.35;;;4.80;99.90;;;;;;5033419;28;20777;-85
2021/10/09 02:34:09;;;;;;;32.03;24.13;;;4.70;99.90;;;;;;5032815;28;20380;-84
2021/10/09 02:36:35;;;;;;;29.37;23.73;;;4.70;99.90;;;;;;5032386;28;20897;-85
2021/10/09 02:39:01;;;;;;;29.70;22.90;;;4.80;99.90;;;;;;5033684;28;20474;-85
2021/10/09 02:41:26;;;;;;;30.52;23.42;;;4.80;99.90;;;;;;5036228;28;20371;-85
2021/10/09 02:43:52;;;;;;;34.40;23.30;;;4.80;99.90;;;;;;5035966;28;20395;-85
2021/10/09 02:46:17;;;;;;;28.35;22.63;;;4.80;99.90;;;;;;5036599;28;20394;-85
2021/10/09 02:48:43;;;;;;;29.67;24.03;;;4.80;99.90;;;;;;5035542;28;20388;-85
2021/10/09 02:51:13;;;;;;;31.00;22.87;;;4.70;99.90;;;;;;5036334;28;20387;-85
2021/10/09 02:53:39;;;;;;;31.05;21.83;;;4.70;99.90;;;;;;5036663;28;20376;-85
2021/10/09 02:56:05;;;;;;;29.17;22.00;;;4.80;99.90;;;;;;5036031;28;20478;-85
2021/10/09 02:58:33;;;;;;;28.53;21.57;;;4.80;99.90;;;;;;5053423;28;20902;-84
2021/10/09 03:01:09;;;;;;;34.05;22.55;;;4.80;99.90;;;;;;5036243;28;20442;-85
2021/10/09 03:03:34;;;;;;;28.95;22.55;;;4.80;99.90;;;;;;5036463;28;20368;-86
2021/10/09 03:06:03;;;;;;;29.37;23.23;;;4.70;99.90;;;;;;5053381;28;20860;-85
2021/10/09 03:08:29;;;;;;;29.73;22.27;;;4.70;99.90;;;;;;5054283;28;20376;-86
2021/10/09 03:10:54;;;;;;;29.37;22.33;;;4.70;99.90;;;;;;5053856;28;20417;-86
2021/10/09 03:13:20;;;;;;;26.87;22.00;;;4.70;99.90;;;;;;5035676;28;20404;-85
2021/10/09 03:15:48;;;;;;;33.50;23.90;;;4.70;99.90;;;;;;5035511;28;20925;-85
2021/10/09 03:18:17;;;;;;;29.17;22.93;;;4.60;99.90;;;;;;5036072;28;20489;-85
2021/10/09 03:20:43;;;;;;;27.63;22.55;;;4.60;99.90;;;;;;5053847;28;20407;-86
2021/10/09 03:23:09;;;;;;;28.38;22.73;;;4.60;99.90;;;;;;5035603;28;20791;-84
2021/10/09 03:25:34;;;;;;;29.67;23.13;;;4.60;99.90;;;;;;5053438;28;20737;-84
2021/10/09 03:28:00;;;;;;;30.45;23.05;;;4.50;99.90;;;;;;5053346;28;20494;-84
2021/10/09 03:30:26;;;;;;;34.90;23.35;;;4.50;99.90;;;;;;5036158;28;20378;-85
2021/10/09 03:32:51;;;;;;;32.20;23.60;;;4.50;99.90;;;;;;5034912;28;20477;-84
2021/10/09 03:35:17;;;;;;;30.53;23.67;;;4.50;99.90;;;;;;5052600;28;20378;-84
2021/10/09 03:37:45;;;;;;;33.67;24.17;;;4.40;99.90;;;;;;5034694;28;20396;-84
2021/10/09 03:40:15;;;;;;;31.70;23.33;;;4.40;99.90;;;;;;5052941;28;20841;-85
2021/10/09 03:45:29;;;;;;;34.08;23.92;;;4.40;99.90;;;;;;5052515;28;20462;-85
2021/10/09 03:48:09;;;;;;;32.20;23.92;;;4.40;99.90;;;;;;5034801;28;20936;-85
2021/10/09 03:53:04;;;;;;;32.03;24.30;;;4.30;99.90;;;;;;5041683;28;20797;-85
2021/10/09 03:55:33;;;;;;;30.13;23.30;;;4.30;99.90;;;;;;5034391;28;20862;-85
2021/10/09 03:57:59;;;;;;;33.65;24.42;;;4.30;99.90;;;;;;5034293;28;20391;-85
2021/10/09 04:00:25;;;;;;;35.15;24.98;;;4.30;99.90;;;;;;5034481;28;20415;-85
2021/10/09 04:02:53;;;;;;;31.75;24.00;;;4.20;99.90;;;;;;5034775;28;20376;-85
2021/10/09 04:05:18;;;;;;;32.38;25.48;;;4.30;99.90;;;;;;5034734;28;20394;-86
2021/10/09 04:07:44;;;;;;;32.95;25.48;;;4.20;99.90;;;;;;5034946;28;20372;-85
2021/10/09 04:10:12;;;;;;;35.13;24.60;;;4.10;99.90;;;;;;5034235;28;20889;-85
2021/10/09 04:12:38;;;;;;;34.75;26.23;;;4.10;99.90;;;;;;5051403;28;20387;-85
2021/10/09 04:15:04;;;;;;;34.13;26.13;;;4.10;99.90;;;;;;5052068;28;20379;-85
2021/10/09 04:17:30;;;;;;;35.00;26.43;;;4.00;99.90;;;;;;5034408;28;20392;-87
2021/10/09 04:19:56;;;;;;;31.33;25.73;;;4.00;99.90;;;;;;5051897;28;20475;-85
2021/10/09 04:22:21;;;;;;;35.90;26.93;;;4.00;99.90;;;;;;5051964;28;20692;-84
2021/10/09 04:24:49;;;;;;;35.92;26.38;;;4.00;99.90;;;;;;5051926;28;20372;-84
2021/10/09 04:27:15;;;;;;;36.15;26.40;;;4.00;99.90;;;;;;5033642;28;20395;-84
2021/10/09 04:29:40;;;;;;;34.63;26.43;;;4.00;99.90;;;;;;5052013;28;21294;-85
2021/10/09 04:32:06;;;;;;;32.70;26.80;;;4.00;99.90;;;;;;5034575;28;20415;-86
2021/10/09 04:34:31;;;;;;;35.53;25.27;;;4.00;99.90;;;;;;5034301;28;20391;-85
2021/10/09 04:36:58;;;;;;;33.35;25.45;;;4.00;99.90;;;;;;5051542;28;20928;-84
2021/10/09 04:39:33;;;;;;;33.83;26.52;;;3.90;99.90;;;;;;5051715;28;20376;-84
2021/10/09 04:42:02;;;;;;;30.15;26.02;;;3.90;99.90;;;;;;5052362;28;20364;-84
2021/10/09 04:44:28;;;;;;;34.95;26.33;;;3.90;99.90;;;;;;5034487;28;20451;-84
2021/10/09 04:46:56;;;;;;;33.17;25.70;;;3.90;99.90;;;;;;5033506;28;20549;-85
2021/10/09 04:49:21;;;;;;;31.33;23.23;;;4.00;99.90;;;;;;5033792;28;20387;-85
2021/10/09 04:51:47;;;;;;;35.27;25.67;;;4.00;99.90;;;;;;5033568;28;20371;-84
2021/10/09 04:54:13;;;;;;;36.53;26.10;;;3.90;99.90;;;;;;5033572;28;20936;-84
2021/10/09 04:56:38;;;;;;;37.28;26.55;;;3.90;99.90;;;;;;5033148;28;20391;-84
2021/10/09 04:59:04;;;;;;;35.73;26.80;;;3.90;99.90;;;;;;5033508;28;20426;-86
2021/10/09 05:01:35;;;;;;;34.90;25.77;;;3.80;99.90;;;;;;5051509;28;20387;-86
2021/10/09 05:04:01;;;;;;;33.28;27.00;;;3.80;99.90;;;;;;5051773;28;20833;-84
2021/10/09 05:06:32;;;;;;;34.80;26.52;;;3.80;99.90;;;;;;5033405;28;20388;-86
2021/10/09 05:08:58;;;;;;;32.70;26.20;;;3.80;99.90;;;;;;5033570;28;20940;-85
2021/10/09 05:11:23;;;;;;;31.58;26.23;;;3.80;99.90;;;;;;5033500;28;20503;-83
2021/10/09 05:13:49;;;;;;;31.92;26.50;;;3.80;99.90;;;;;;5051011;28;20384;-84
2021/10/09 05:16:18;;;;;;;34.63;26.10;;;3.80;99.90;;;;;;5033014;28;20430;-83
2021/10/09 05:18:43;;;;;;;32.65;26.33;;;3.80;99.90;;;;;;5033226;28;20407;-84
2021/10/09 05:21:10;;;;;;;32.47;25.37;;;3.90;99.90;;;;;;5051204;28;20897;-86
2021/10/09 05:23:36;;;;;;;33.22;25.50;;;3.90;99.90;;;;;;5033569;28;20505;-84
2021/10/09 05:26:03;;;;;;;35.00;26.37;;;3.90;99.90;;;;;;5032968;28;20386;-83
2021/10/09 05:28:41;;;;;;;34.53;26.27;;;3.80;99.90;;;;;;5050687;28;20360;-84
2021/10/09 05:31:18;;;;;;;36.17;26.23;;;3.90;99.90;;;;;;5051045;28;20384;-85
2021/10/09 05:33:44;;;;;;;34.58;26.02;;;3.90;99.90;;;;;;5051604;28;20376;-83
2021/10/09 05:36:09;;;;;;;32.60;25.50;;;3.80;99.90;;;;;;5032787;28;20392;-84
2021/10/09 05:38:35;;;;;;;32.60;26.60;;;3.90;99.90;;;;;;5032937;28;20396;-84
2021/10/09 05:41:01;;;;;;;34.37;26.77;;;3.80;99.90;;;;;;5050958;28;20372;-85
2021/10/09 05:43:28;;;;;;;34.25;26.23;;;3.80;99.90;;;;;;5050455;28;20834;-84
2021/10/09 05:45:54;;;;;;;36.83;26.02;;;3.90;99.90;;;;;;5050565;28;20395;-84
2021/10/09 05:48:19;;;;;;;33.33;25.77;;;3.80;99.90;;;;;;5032415;28;20399;-84
2021/10/09 05:54:17;;;;;;;32.95;26.02;;;3.90;99.90;;;;;;5050667;28;20872;-85
2021/10/09 06:01:51;;;;;;;34.80;24.73;;;4.00;99.90;;;;;;5049926;28;20388;-85
2021/10/09 06:45:55;;;;;;;24.93;20.20;;;5.80;99.90;;;;;;5056821;28;20897;-85
2021/10/09 07:01:22;;;;;;;31.10;20.40;;;6.50;99.90;;;;;;5057474;28;20854;-84
2021/10/09 07:03:48;;;;;;;27.53;18.73;;;6.60;99.90;;;;;;5040033;28;20383;-85
2021/10/09 07:06:32;;;;;;;26.13;18.53;;;6.60;99.90;;;;;;5039353;28;20430;-85
2021/10/09 07:09:07;;;;;;;25.40;18.55;;;6.80;99.90;;;;;;5039803;28;20401;-85
2021/10/09 07:12:32;;;;;;;24.35;17.25;;;7.00;99.90;;;;;;5057319;28;20376;-84
2021/10/09 07:14:57;;;;;;;23.35;18.23;;;7.10;99.90;;;;;;4989139;28;20388;-85
2021/10/09 07:17:22;;;;;;;28.23;19.63;;;7.30;99.90;;;;;;5056524;28;20390;-86
2021/10/09 07:19:48;;;;;;;27.27;18.67;;;7.40;99.90;;;;;;5057514;28;20406;-85
2021/10/09 07:22:14;;;;;;;29.07;18.90;;;7.50;99.90;;;;;;5038906;28;20400;-83
2021/10/09 07:24:39;;;;;;;25.80;17.63;;;7.50;99.90;;;;;;5038475;28;20380;-84
2021/10/09 07:27:05;;;;;;;26.73;17.87;;;7.60;99.90;;;;;;5035285;28;20404;-82
2021/10/09 07:29:30;;;;;;;28.87;18.60;;;7.60;99.90;;;;;;5035973;28;20417;-84
2021/10/09 07:31:56;;;;;;;25.30;18.63;;;7.70;99.90;;;;;;5035324;28;20379;-84
2021/10/09 07:34:22;;;;;;;25.33;18.27;;;7.90;99.90;;;;;;5051109;28;20897;-84
2021/10/09 07:36:47;;;;;;;30.33;17.50;;;7.90;99.90;;;;;;5046522;28;20389;-87
2021/10/09 07:39:13;;;;;;;27.33;18.10;;;8.00;99.90;;;;;;5069563;28;20724;-83
2021/10/09 07:41:39;;;;;;;23.10;17.40;;;8.30;99.90;;;;;;5048928;28;20409;-84
2021/10/09 07:44:11;;;;;;;22.30;17.38;;;8.30;99.90;;;;;;5065678;28;20431;-84
2021/10/09 07:46:36;;;;;;;24.15;17.77;;;8.50;99.90;;;;;;5034886;28;20403;-84
2021/10/09 07:49:02;;;;;;;24.23;17.48;;;8.50;99.90;;;;;;5057275;28;20380;-84
2021/10/09 07:51:36;;;;;;;26.83;16.97;;;8.60;99.90;;;;;;5051842;28;20380;-85
2021/10/09 07:54:05;;;;;;;27.77;18.20;;;8.60;99.90;;;;;;5033725;28;20388;-85
2021/10/09 07:56:31;;;;;;;27.03;17.80;;;8.80;99.90;;;;;;5049796;28;20492;-84
2021/10/09 07:58:57;;;;;;;27.65;17.95;;;8.80;99.90;;;;;;5050964;28;20394;-84
2021/10/09 08:01:23;;;;;;;24.35;17.30;;;9.00;99.90;;;;;;5034485;28;20384;-85
2021/10/09 08:03:49;;;;;;;24.75;17.30;;;9.00;99.90;;;;;;5052250;28;20395;-85
2021/10/09 08:06:15;;;;;;;24.60;17.05;;;9.20;99.90;;;;;;5034578;28;20736;-85
2021/10/09 08:08:44;;;;;;;23.30;17.20;;;9.20;99.90;;;;;;5034791;28;20884;-86
2021/10/09 08:11:24;;;;;;;23.20;16.90;;;9.40;99.90;;;;;;5031815;28;20380;-85
2021/10/09 08:13:50;;;;;;;21.85;16.88;;;9.50;99.90;;;;;;5051512;28;20383;-85
2021/10/09 08:16:16;;;;;;;23.20;16.88;;;9.70;99.90;;;;;;5034241;28;20399;-86
2021/10/09 08:18:44;;;;;;;20.67;16.30;;;9.90;99.90;;;;;;5027635;28;20442;-86
2021/10/09 08:21:10;;;;;;;25.20;16.63;;;10.10;99.90;;;;;;5053009;28;20474;-84
2021/10/09 08:23:43;;;;;;;25.60;16.65;;;10.10;99.90;;;;;;5014585;28;20473;-84
2021/10/09 08:37:18;;;;;;;23.67;15.20;;;10.80;99.90;;;;;;5052614;28;21269;-83
2021/10/09 08:39:45;;;;;;;22.33;16.20;;;10.70;99.90;;;;;;5053190;28;21125;-85
2021/10/09 08:42:15;;;;;;;22.50;15.68;;;10.80;99.90;;;;;;5034688;28;20384;-86
2021/10/09 08:44:41;;;;;;;24.00;15.38;;;10.80;99.90;;;;;;5035327;28;20750;-86
2021/10/09 08:47:23;;;;;;;19.48;14.50;;;10.80;99.90;;;;;;5035417;28;20395;-85
2021/10/09 08:50:21;;;;;;;22.13;15.10;;;11.00;99.90;;;;;;5052215;28;20392;-84
2021/10/09 08:53:03;;;;;;;20.05;13.77;;;11.10;99.90;;;;;;5034302;28;20384;-86
2021/10/09 08:55:30;;;;;;;22.35;14.70;;;11.20;99.90;;;;;;5053457;28;20375;-84
2021/10/09 08:58:04;;;;;;;18.27;13.60;;;11.20;99.90;;;;;;5029815;28;20394;-85
2021/10/09 09:00:51;;;;;;;18.77;12.80;;;11.40;99.90;;;;;;5033126;28;20455;-85
2021/10/09 09:04:08;;;;;;;20.52;14.07;;;11.70;99.90;;;;;;5044239;28;20438;-83
2021/10/09 09:37:41;;;;;;;16.88;8.73;;;13.10;99.90;;;;;;5024263;28;20376;-82
2021/10/09 09:40:17;;;;;;;15.13;7.93;;;13.10;99.90;;;;;;5033592;28;20758;-85
2021/10/09 09:42:48;;;;;;;12.05;7.78;;;13.00;99.90;;;;;;5033842;28;20376;-85
2021/10/09 09:45:22;;;;;;;10.80;7.72;;;13.10;99.90;;;;;;5032487;28;20375;-83
2021/10/09 09:47:48;;;;;;;12.05;7.47;;;13.20;99.90;;;;;;5051257;28;20474;-83
2021/10/09 09:50:14;;;;;;;12.23;7.25;;;13.20;99.90;;;;;;5041789;28;20504;-85
2021/10/09 09:52:44;;;;;;;11.18;7.03;;;13.20;99.90;;;;;;5041586;28;20397;-85
2021/10/09 09:55:12;;;;;;;13.55;7.35;;;13.40;99.90;;;;;;5059601;28;20381;-85
2021/10/09 09:57:39;;;;;;;10.57;6.88;;;13.50;99.90;;;;;;5061871;28;20386;-86
2021/10/09 10:00:07;;;;;;;15.10;7.67;;;13.50;99.90;;;;;;5053260;28;20441;-84
2021/10/09 10:02:41;;;;;;;11.77;7.07;;;13.50;99.90;;;;;;5044565;28;20396;-86
2021/10/09 10:05:07;;;;;;;10.63;6.72;;;13.50;99.90;;;;;;5033843;28;20870;-85
2021/10/09 10:07:35;;;;;;;9.82;6.80;;;13.50;99.90;;;;;;5032609;28;20451;-84
2021/10/09 10:10:01;;;;;;;11.77;7.15;;;13.60;99.90;;;;;;5031628;28;20395;-85
2021/10/09 10:12:29;;;;;;;11.85;7.15;;;13.80;99.90;;;;;;5051683;28;20842;-85
2021/10/09 10:14:56;;;;;;;10.35;6.68;;;13.80;99.90;;;;;;5047581;28;20869;-85
2021/10/09 10:17:47;;;;;;;11.40;6.40;;;13.70;99.90;;;;;;5029580;28;20379;-83
2021/10/09 10:20:21;;;;;;;10.43;6.30;;;13.50;99.90;;;;;;5059947;28;20719;-85
2021/10/09 10:22:49;;;;;;;13.32;6.55;;;13.50;99.90;;;;;;5050838;28;20388;-84
2021/10/09 10:25:25;;;;;;;11.13;6.45;;;13.50;99.90;;;;;;5032388;28;20388;-82
2021/10/09 10:28:17;;;;;;;12.88;6.68;;;13.60;99.90;;;;;;5032958;28;20468;-83
2021/10/09 10:30:49;;;;;;;9.73;6.93;;;13.70;99.90;;;;;;5030658;28;20468;-85
2021/10/09 10:33:23;;;;;;;9.95;6.10;;;13.60;99.90;;;;;;5050840;28;20403;-86
2021/10/09 10:35:49;;;;;;;8.95;6.03;;;13.70;99.90;;;;;;5032189;28;20391;-86
2021/10/09 10:38:21;;;;;;;10.53;5.80;;;13.80;99.90;;;;;;5050204;28;20746;-85
2021/10/09 10:41:04;;;;;;;9.15;5.88;;;14.00;99.90;;;;;;5046110;28;20383;-86
2021/10/09 10:43:45;;;;;;;12.00;5.60;;;14.00;99.70;;;;;;5050401;28;20376;-84
2021/10/09 10:46:19;;;;;;;11.75;6.35;;;14.00;99.90;;;;;;5049253;28;20416;-85
2021/10/09 10:48:58;;;;;;;9.45;5.78;;;14.10;99.90;;;;;;5031754;28;20391;-84
2021/10/09 10:51:39;;;;;;;11.90;5.75;;;14.10;99.90;;;;;;5032550;28;20379;-84
2021/10/09 10:56:31;;;;;;;14.55;6.32;;;14.30;99.20;;;;;;5051094;28;20935;-86
2021/10/09 10:59:33;;;;;;;11.77;5.90;;;14.30;99.70;;;;;;5032558;28;20483;-84
2021/10/09 11:02:20;;;;;;;9.70;5.60;;;14.40;99.90;;;;;;5036303;28;20469;-84
2021/10/09 11:04:59;;;;;;;6.55;5.38;;;14.30;98.80;;;;;;5036036;28;20481;-86
2021/10/09 11:07:30;;;;;;;7.97;5.40;;;14.30;99.20;;;;;;5054513;28;20387;-85
2021/10/09 11:10:09;;;;;;;8.85;5.50;;;14.20;98.40;;;;;;5036014;28;20383;-86
2021/10/09 11:12:40;;;;;;;9.38;5.53;;;14.30;99.20;;;;;;5053105;28;20387;-85
2021/10/09 11:15:19;;;;;;;7.30;5.33;;;14.30;98.90;;;;;;5029264;28;20388;-83
2021/10/09 11:17:49;;;;;;;10.93;5.32;;;14.40;99.30;;;;;;5016852;28;20388;-86
2021/10/09 11:20:33;;;;;;;7.60;5.13;;;14.40;98.80;;;;;;5026669;28;21061;-84
2021/10/09 11:23:02;;;;;;;7.13;5.07;;;14.30;99.10;;;;;;5032745;28;20396;-86
2021/10/09 11:25:40;;;;;;;7.43;5.55;;;14.40;98.70;;;;;;5036219;28;20907;-84
2021/10/09 11:28:33;;;;;;;7.93;5.30;;;14.40;98.40;;;;;;5053551;28;20465;-86
2021/10/09 11:30:58;;;;;;;7.70;5.40;;;14.40;99.00;;;;;;5035679;28;20382;-83
2021/10/09 11:33:25;;;;;;;7.00;5.30;;;14.40;99.30;;;;;;5020345;28;20451;-82
2021/10/09 11:35:52;;;;;;;11.18;5.60;;;14.50;97.90;;;;;;5041226;28;20385;-85
2021/10/09 11:38:22;;;;;;;9.27;5.30;;;14.50;97.90;;;;;;5015311;28;20417;-86
2021/10/09 11:40:54;;;;;;;8.25;4.97;;;14.50;98.10;;;;;;5049172;28;20395;-86
2021/10/09 11:46:52;;;;;;;11.30;5.75;;;14.60;97.60;;;;;;5034864;28;20435;-84
2021/10/09 11:55:18;;;;;;;7.68;5.80;;;14.70;99.20;;;;;;5033170;28;20461;-87
2021/10/09 11:57:45;;;;;;;6.40;5.25;;;14.60;99.00;;;;;;5033034;28;20384;-85
2021/10/09 12:00:29;;;;;;;8.27;5.10;;;14.60;98.40;;;;;;5025646;28;20946;-85
2021/10/09 12:03:27;;;;;;;7.93;5.72;;;14.70;98.40;;;;;;5024970;28;20403;-85
2021/10/09 12:06:14;;;;;;;8.30;5.13;;;14.80;99.00;;;;;;5033977;28;20446;-85
2021/10/09 12:09:07;;;;;;;6.07;4.70;;;14.80;98.20;;;;;;5031718;28;20386;-86
2021/10/09 12:11:41;;;;;;;7.70;5.32;;;14.80;98.60;;;;;;5208103;22;20427;-84
2021/10/09 12:14:09;;;;;;;10.55;4.70;;;14.70;98.50;;;;;;5025500;28;20401;-85
2021/10/09 12:16:43;;;;;;;9.05;4.97;;;14.80;99.40;;;;;;5036352;28;20386;-85
2021/10/09 12:19:12;;;;;;;8.25;5.00;;;14.80;98.30;;;;;;5040455;28;20739;-84
2021/10/09 12:21:41;;;;;;;8.88;5.28;;;14.60;97.30;;;;;;5039740;28;20378;-84
2021/10/09 12:24:25;;;;;;;7.63;4.63;;;14.70;98.00;;;;;;5035758;28;20416;-86
2021/10/09 12:27:15;;;;;;;9.50;5.15;;;14.60;98.20;;;;;;5036631;28;20467;-86
2021/10/09 12:30:16;;;;;;;7.38;5.28;;;14.60;97.40;;;;;;5036325;28;20878;-86
2021/10/09 12:32:43;;;;;;;7.93;5.10;;;14.70;98.10;;;;;;5038796;28;20401;-86
2021/10/09 12:35:22;;;;;;;7.85;5.32;;;14.70;98.90;;;;;;5038006;28;20388;-85
2021/10/09 12:38:03;;;;;;;8.00;4.72;;;14.80;98.80;;;;;;5037909;28;20420;-85
2021/10/09 12:40:49;;;;;;;9.07;5.10;;;14.80;98.40;;;;;;5038336;28;20371;-86
2021/10/09 12:43:20;;;;;;;8.30;5.10;;;14.80;98.30;;;;;;5038766;28;20377;-85
2021/10/09 12:45:46;;;;;;;7.88;4.80;;;14.90;98.50;;;;;;5038803;28;20452;-84
2021/10/09 12:48:13;;;;;;;8.02;4.60;;;14.90;98.50;;;;;;5037041;28;20489;-82
2021/10/09 12:50:41;;;;;;;10.18;5.40;;;14.90;97.80;;;;;;5020930;28;20395;-83
2021/10/09 12:53:08;;;;;;;6.82;4.50;;;14.90;97.60;;;;;;5022508;28;21014;-86
2021/10/09 12:55:35;;;;;;;7.70;5.17;;;15.00;98.40;;;;;;5039141;28;20377;-86
2021/10/09 12:58:04;;;;;;;8.90;5.10;;;15.00;97.00;;;;;;5039532;28;20889;-84
2021/10/09 13:00:33;;;;;;;10.10;5.47;;;15.10;97.40;;;;;;5040313;28;20419;-86
2021/10/09 13:02:59;;;;;;;9.68;4.93;;;15.10;97.90;;;;;;5023409;28;20386;-83
2021/10/09 13:05:27;;;;;;;51.70;11.07;;;15.20;98.80;;;;;;5022494;28;20757;-84
2021/10/09 13:07:54;;;;;;;47.13;10.18;;;15.20;98.60;;;;;;5026643;28;20505;-82
2021/10/09 13:10:28;;;;;;;9.17;4.33;;;15.10;98.10;;;;;;5041426;28;20381;-85
2021/10/09 13:12:54;;;;;;;9.43;4.72;;;15.10;98.30;;;;;;5035601;28;20401;-84
2021/10/09 13:15:20;;;;;;;13.70;4.82;;;15.10;97.90;;;;;;5041044;28;20382;-82
2021/10/09 13:17:48;;;;;;;6.43;4.70;;;15.10;98.00;;;;;;5018952;28;20400;-85
2021/10/09 13:20:15;;;;;;;10.35;5.30;;;15.10;98.10;;;;;;5037707;28;20908;-85
2021/10/09 13:22:44;;;;;;;6.93;5.80;;;15.10;99.10;;;;;;5041040;28;20419;-85
2021/10/09 13:25:11;;;;;;;13.57;6.38;;;15.20;98.50;;;;;;5012638;28;20385;-85
2021/10/09 13:27:38;;;;;;;9.27;5.65;;;15.20;98.60;;;;;;5040941;28;20398;-83
2021/10/09 13:30:04;;;;;;;15.55;6.03;;;15.30;98.40;;;;;;5026949;28;20441;-84
2021/10/09 13:32:30;;;;;;;11.05;6.00;;;15.30;98.10;;;;;;5031482;28;20471;-84
2021/10/09 13:34:55;;;;;;;12.73;5.68;;;15.20;99.00;;;;;;5032257;28;20996;-86
2021/10/09 13:37:23;;;;;;;13.33;5.27;;;15.20;99.60;;;;;;5031312;28;20384;-85
2021/10/09 13:39:49;;;;;;;8.60;5.22;;;15.20;98.40;;;;;;5048405;28;20388;-85
2021/10/09 13:42:18;;;;;;;24.08;6.28;;;15.20;98.10;;;;;;5040265;28;20378;-85
2021/10/09 13:44:44;;;;;;;8.40;4.95;;;15.20;98.30;;;;;;5039160;28;20618;-83
2021/10/09 13:47:13;;;;;;;8.83;4.87;;;15.20;97.20;;;;;;5036765;28;20932;-85
2021/10/09 13:49:38;;;;;;;7.90;4.32;;;15.10;98.30;;;;;;5035691;28;20416;-85
2021/10/09 13:52:06;;;;;;;6.40;4.60;;;15.20;97.40;;;;;;5037304;28;20375;-86
2021/10/09 13:54:41;;;;;;;9.60;4.90;;;15.10;97.80;;;;;;5021330;28;20395;-85
2021/10/09 13:57:07;;;;;;;6.60;4.82;;;15.10;96.80;;;;;;5037049;28;20373;-86
2021/10/09 13:59:36;;;;;;;6.80;4.50;;;15.00;97.40;;;;;;5039382;28;20884;-86
2021/10/09 14:02:02;;;;;;;9.40;4.88;;;15.00;98.20;;;;;;5035150;28;20453;-88
2021/10/09 14:04:28;;;;;;;6.43;4.40;;;15.00;99.00;;;;;;5021406;28;20376;-85
2021/10/09 14:06:56;;;;;;;7.63;4.45;;;15.00;97.50;;;;;;5019526;28;20413;-86
2021/10/09 14:09:22;;;;;;;6.57;4.60;;;14.90;97.30;;;;;;5037769;28;20425;-84
2021/10/09 14:11:49;;;;;;;8.00;4.70;;;15.00;96.50;;;;;;5039735;28;20472;-86
2021/10/09 14:14:15;;;;;;;7.47;4.90;;;14.90;97.70;;;;;;5032869;28;20388;-86
2021/10/09 14:16:41;;;;;;;8.52;5.40;;;15.00;98.80;;;;;;5035219;28;20380;-84
2021/10/09 14:19:24;;;;;;;8.43;5.77;;;15.00;99.00;;;;;;5014359;28;20378;-88
2021/10/09 14:21:50;;;;;;;9.50;6.30;;;15.00;99.20;;;;;;5029478;28;20390;-85
2021/10/09 14:24:19;;;;;;;7.72;5.95;;;14.90;99.30;;;;;;5011791;28;20786;-86
2021/10/09 14:26:44;;;;;;;10.32;5.75;;;14.90;99.70;;;;;;5027925;28;20405;-84
2021/10/09 14:29:10;;;;;;;8.30;5.75;;;14.90;99.90;;;;;;5010808;28;20390;-85
2021/10/09 14:31:36;;;;;;;8.17;5.73;;;14.90;99.10;;;;;;5011086;28;20404;-86
2021/10/09 14:34:03;;;;;;;10.30;5.88;;;14.90;99.80;;;;;;5010877;28;20428;-86
2021/10/09 14:36:29;;;;;;;9.10;5.20;;;14.80;99.90;;;;;;5014296;28;20385;-88
2021/10/09 14:39:02;;;;;;;10.23;5.43;;;14.70;99.30;;;;;;5019517;28;20387;-85
2021/10/09 14:41:28;;;;;;;7.10;5.20;;;14.70;99.70;;;;;;5022416;28;20423;-85
2021/10/09 14:43:57;;;;;;;11.30;5.95;;;14.60;99.90;;;;;;5043228;28;20416;-85
2021/10/09 14:49:04;;;;;;;9.82;6.22;;;14.60;99.70;;;;;;5039830;28;20845;-86
2021/10/09 14:51:42;;;;;;;10.93;6.10;;;14.60;99.90;;;;;;5039744;28;20401;-87
2021/10/09 15:18:41;;;;;;;14.80;5.70;;;14.40;99.90;;;;;;5040149;28;20758;-84
2021/10/09 15:21:07;;;;;;;9.75;5.57;;;14.30;99.90;;;;;;5013740;28;20397;-84
2021/10/09 15:23:32;;;;;;;7.40;5.43;;;14.30;99.90;;;;;;5032031;28;20385;-85
2021/10/09 15:25:58;;;;;;;11.50;6.27;;;14.30;99.90;;;;;;5013215;28;20393;-85
2021/10/09 15:28:23;;;;;;;9.30;5.32;;;14.20;99.90;;;;;;5032131;28;20397;-85
2021/10/09 15:30:49;;;;;;;14.90;6.13;;;14.20;99.90;;;;;;5015180;28;20402;-84
2021/10/09 15:33:15;;;;;;;11.80;5.97;;;14.20;99.90;;;;;;5033049;28;20464;-86
2021/10/09 15:35:41;;;;;;;27.07;6.57;;;14.00;99.90;;;;;;5015266;28;20398;-86